WetterOnline ( https://www.wetteronline.de )

Wetter aktuell F��rth, Faustenbach

Aktuelles Wetter: Mannheim (100m)

6-stündlich | Neueste Meldungen
Ortszeit Temperatur Wetter
So, 05.12. 1:00 5.1° C bewölkt
Sa, 04.12. 19:00 7.6° C bedeckt
Sa, 04.12. 13:00 5.2° C leichter Regen
Sa, 04.12. 7:00 2.3° C leichter Regen
Sa, 04.12. 1:00 3.2° C bedeckt
Fr, 03.12. 19:00 2.5° C bedeckt
Fr, 03.12. 13:00 2.2° C bedeckt
Fr, 03.12. 7:00 -0.7° C wolkenlos
Ortszeit Temperatur Wetter
So, 05.12. 5:00 3.4° C wolkig
So, 05.12. 4:50 3.4° C wolkig
So, 05.12. 4:40 3.6° C bewölkt
So, 05.12. 4:30 3.8° C bedeckt
So, 05.12. 4:20 3.8° C bedeckt
So, 05.12. 4:10 3.6° C bedeckt
So, 05.12. 4:00 3.3° C bewölkt
So, 05.12. 3:30 3.5° C bedeckt
So, 05.12. 3:00 3.7° C bedeckt
So, 05.12. 2:30 4.2° C leichter Regen
So, 05.12. 2:00 4.8° C bedeckt
Ortszeit Relative Feuchte Sichtweite
So, 05.12. 1:00 76% 50 km
Sa, 04.12. 19:00 84% 60 km
Sa, 04.12. 13:00 99% 4.4 km
Sa, 04.12. 7:00 99% 6 km
Sa, 04.12. 1:00 70% 55 km
Fr, 03.12. 19:00 81% 35 km
Fr, 03.12. 13:00 78% 40 km
Fr, 03.12. 7:00 92% 23 km
Ortszeit Relative Feuchte Sichtweite
So, 05.12. 5:00 90% 35 km
So, 05.12. 4:50 90% -
So, 05.12. 4:40 89% -
So, 05.12. 4:30 91% 35 km
So, 05.12. 4:20 91% -
So, 05.12. 4:10 92% -
So, 05.12. 4:00 93% 30 km
So, 05.12. 3:30 92% 35 km
So, 05.12. 3:00 92% 40 km
So, 05.12. 2:30 88% 29 km
So, 05.12. 2:00 80% 40 km
Ortszeit Niederschlagsmenge Niederschlagsart
So, 05.12. 1:00 0.0 l/m2 in 6 Std. -
Sa, 04.12. 19:00 9 l/m2 in 12 Std. Regen
Sa, 04.12. 13:00 3 l/m2 in 6 Std. Regen
Sa, 04.12. 7:00 7 l/m2 in 12 Std. Schnee, Regen
Sa, 04.12. 1:00 0.0 l/m2 in 6 Std. -
Fr, 03.12. 19:00 0.0 l/m2 in 12 Std. -
Fr, 03.12. 13:00 0.0 l/m2 in 6 Std. -
Fr, 03.12. 7:00 0.1 l/m2 in 12 Std. Schnee, Regen
Ortszeit Niederschlagsmenge Niederschlagsart
So, 05.12. 5:00 0.0 l/m2 in 1 Std. -
So, 05.12. 4:50 keine Meldung -
So, 05.12. 4:40 keine Meldung -
So, 05.12. 4:30 0.0 l/m2 in 1 Std. -
So, 05.12. 4:20 keine Meldung -
So, 05.12. 4:10 keine Meldung -
So, 05.12. 4:00 0.1 l/m2 in 1 Std. Regen
So, 05.12. 3:30 0.1 l/m2 in 1 Std. Schneeregen
So, 05.12. 3:00 0.1 l/m2 in 1 Std. Regen
So, 05.12. 2:30 0.1 l/m2 in 1 Std. -
So, 05.12. 2:00 0.1 l/m2 in 1 Std. Regen
Ortszeit Stärke Spitze Richtung
km/h Bft. km/h Grad Sektor
So, 05.12. 1:00 11 2 43 180° S
Sa, 04.12. 19:00 17 3 33 280° W
Sa, 04.12. 13:00 0 0 11 - -
Sa, 04.12. 7:00 4 1 22 190° S
Sa, 04.12. 1:00 11 2 29 160° S
Fr, 03.12. 19:00 13 3 30 150° SO
Fr, 03.12. 13:00 14 3 32 180° S
Fr, 03.12. 7:00 13 3 17 150° SO
Ortszeit Stärke Spitze Richtung
km/h Bft. km/h Grad Sektor
So, 05.12. 5:00 9 2 15 160° S
So, 05.12. 4:50 9 2 - 160° S
So, 05.12. 4:40 11 2 - 150° SO
So, 05.12. 4:30 7 2 11 110° O
So, 05.12. 4:20 7 2 - 110° O
So, 05.12. 4:10 9 2 - 110° O
So, 05.12. 4:00 4 1 7 110° O
So, 05.12. 3:30 7 2 7 160° S
So, 05.12. 3:00 7 2 24 160° S
So, 05.12. 2:30 15 3 24 200° S
So, 05.12. 2:00 19 3 37 190° S
Ortszeit Untergrenze Bedeckung Gattung
total tief tief mittel hoch
So, 05.12. 1:00 1500 m 7/8 7/8 - - -
Sa, 04.12. 19:00 570 m 8/8 8/8 - - -
Sa, 04.12. 13:00 60 m 8/8 8/8 - - -
Sa, 04.12. 7:00 390 m 7/8 8/8 - - -
Sa, 04.12. 1:00 720 m 8/8 8/8 - - -
Fr, 03.12. 19:00 1500 m 8/8 8/8 - - -
Fr, 03.12. 13:00 510 m 8/8 8/8 - - -
Fr, 03.12. 7:00 - 0/8 0/8 - - -
Ortszeit Bedeckungsgrad in Achtel und Wolkenuntergrenze
So, 05.12. 5:00 5(990m)
So, 05.12. 4:50 5(990m)
So, 05.12. 4:40 7(990m)
So, 05.12. 4:30 3(810m) 8(1020m)
So, 05.12. 4:20 3(810m) 8(1020m)
So, 05.12. 4:10 4(810m) 8(1020m)
So, 05.12. 4:00 5(810m) 7(1050m) 7(1800m)
So, 05.12. 3:30 4(900m) 4(1140m) 8(1800m)
So, 05.12. 3:00 4(900m) 8(1800m) 8(1800m)
So, 05.12. 2:30 4(810m) 6(1500m) 8(1800m)
So, 05.12. 2:00 1(690m) 7(1500m) 8(1800m)
Ortszeit Luftdruck NN (hPa) Tendenz (hPa in 3 Std.)
So, 05.12. 1:00 1004 + 2,0
Sa, 04.12. 19:00 998 + 2,8
Sa, 04.12. 13:00 997 - 2,4
Sa, 04.12. 7:00 1001 - 2,7
Sa, 04.12. 1:00 1006 - 3,0
Fr, 03.12. 19:00 1012 - 1,8
Fr, 03.12. 13:00 1015 - 1,4
Fr, 03.12. 7:00 1015 + 1,3
Ortszeit Luftdruck NN (hPa) Tendenz (hPa in 3 Std.)
So, 05.12. 5:00 1004 - 0,4
So, 05.12. 4:50 1004 keine Meldung
So, 05.12. 4:40 1004 keine Meldung
So, 05.12. 4:30 1004 - 0,1
So, 05.12. 4:20 1004 keine Meldung
So, 05.12. 4:10 1004 keine Meldung
So, 05.12. 4:00 1004 - 0,1
So, 05.12. 3:30 1004 0,0
So, 05.12. 3:00 1005 + 0,9
So, 05.12. 2:30 1005 + 1,0
So, 05.12. 2:00 1004 + 1,6
Ortszeit Schneehöhe (cm)
So, 05.12. 1:00 0
Sa, 04.12. 19:00 0
Sa, 04.12. 13:00 0
Sa, 04.12. 7:00 0
Sa, 04.12. 1:00 0
Fr, 03.12. 19:00 0
Fr, 03.12. 13:00 0
Fr, 03.12. 7:00 0
Ortszeit Schneehöhe (cm)
So, 05.12. 5:00 0
So, 05.12. 4:50 0
So, 05.12. 4:40 0
So, 05.12. 4:30 0
So, 05.12. 4:20 0
So, 05.12. 4:10 0
So, 05.12. 4:00 0
So, 05.12. 3:30 0
So, 05.12. 3:00 0
So, 05.12. 2:30 0
So, 05.12. 2:00 0
Link zu dieser Seite / Seite empfehlen

Das Wetter in ...